Time;durP1;ratioP1;P1;durP2;ratioP2;P2;SDS_P1;SDS_P2;PMS_P1;PMS_P2;Temp;Humidity;BMP_temperature;BMP_pressure;BME280_temperature;BME280_humidity;BME280_pressure;Samples;Min_cycle;Max_cycle;Signal;HPM_P1;HPM_P2
2023/08/10 00:01:09;;;;;;;4.90;1.50;;;13.80;99.90;;;;;;5000484;28;20270;-89
2023/08/10 00:03:35;;;;;;;2.42;1.27;;;13.80;99.90;;;;;;5000139;28;20741;-89
2023/08/10 00:06:00;;;;;;;5.18;1.40;;;13.80;99.90;;;;;;5017991;28;20179;-88
2023/08/10 00:08:27;;;;;;;4.10;1.75;;;13.90;99.90;;;;;;5000269;28;20736;-89
2023/08/10 00:10:55;;;;;;;7.32;1.98;;;13.90;99.90;;;;;;5000121;28;20327;-89
2023/08/10 00:13:21;;;;;;;2.17;1.50;;;13.80;99.90;;;;;;4986381;28;20262;-89
2023/08/10 00:15:47;;;;;;;4.20;1.80;;;13.80;99.90;;;;;;4980739;28;20271;-91
2023/08/10 00:18:14;;;;;;;4.95;1.67;;;13.80;99.90;;;;;;4980654;28;20176;-89
2023/08/10 00:20:40;;;;;;;2.72;1.55;;;13.70;99.90;;;;;;4980646;28;20235;-89
2023/08/10 00:23:06;;;;;;;3.03;1.88;;;13.70;99.90;;;;;;4980637;28;20180;-89
2023/08/10 00:25:33;;;;;;;3.88;1.70;;;13.70;99.90;;;;;;4980670;28;20528;-89
2023/08/10 00:27:58;;;;;;;6.45;1.90;;;13.60;99.90;;;;;;4980319;28;20196;-89
2023/08/10 00:30:24;;;;;;;4.00;1.95;;;13.60;99.90;;;;;;4980378;28;20193;-89
2023/08/10 00:32:50;;;;;;;5.40;1.95;;;13.60;99.90;;;;;;4997714;28;20168;-90
2023/08/10 00:35:16;;;;;;;6.63;1.70;;;13.60;99.90;;;;;;4980411;28;20255;-89
2023/08/10 00:37:42;;;;;;;2.60;1.50;;;13.60;99.90;;;;;;4997653;28;20184;-89
2023/08/10 00:40:12;;;;;;;4.78;1.75;;;13.50;99.90;;;;;;4980138;28;20187;-89
2023/08/10 00:42:39;;;;;;;5.13;1.80;;;13.50;99.90;;;;;;4980081;28;20323;-89
2023/08/10 00:45:05;;;;;;;7.53;1.63;;;13.30;99.90;;;;;;4980176;28;20180;-90
2023/08/10 00:47:31;;;;;;;4.85;1.52;;;13.30;99.90;;;;;;4980176;28;20211;-89
2023/08/10 00:49:57;;;;;;;6.63;1.80;;;13.30;99.90;;;;;;4979617;28;20183;-90
2023/08/10 00:52:23;;;;;;;3.72;1.75;;;13.20;99.90;;;;;;4979986;28;20202;-90
2023/08/10 00:54:50;;;;;;;4.65;1.77;;;13.20;99.90;;;;;;4979953;28;20196;-89
2023/08/10 00:57:15;;;;;;;6.07;1.77;;;13.20;99.90;;;;;;4980012;28;20569;-90
2023/08/10 00:59:42;;;;;;;2.30;1.42;;;13.30;99.90;;;;;;4979769;28;20287;-90
2023/08/10 01:02:09;;;;;;;4.53;1.77;;;13.20;99.90;;;;;;4997070;28;20172;-89
2023/08/10 01:04:35;;;;;;;5.30;1.67;;;13.20;99.90;;;;;;4979812;28;20259;-89
2023/08/10 01:07:13;;;;;;;4.85;1.80;;;13.10;99.90;;;;;;4979672;28;20266;-89
2023/08/10 01:09:54;;;;;;;5.15;2.00;;;13.10;99.90;;;;;;4996965;28;20172;-89
2023/08/10 01:12:33;;;;;;;4.05;1.70;;;13.10;99.90;;;;;;4984450;28;20227;-89
2023/08/10 01:15:09;;;;;;;2.58;1.85;;;13.20;99.90;;;;;;4999001;28;20183;-90
2023/08/10 01:17:48;;;;;;;6.15;2.00;;;13.20;99.90;;;;;;5016747;28;20163;-89
2023/08/10 01:20:17;;;;;;;3.90;1.92;;;13.30;99.90;;;;;;4999272;28;20175;-90
2023/08/10 01:23:03;;;;;;;6.43;1.65;;;13.30;99.90;;;;;;4999165;28;20266;-89
2023/08/10 01:25:30;;;;;;;6.05;2.00;;;13.30;99.90;;;;;;5016375;28;20252;-90
2023/08/10 01:27:56;;;;;;;3.75;1.92;;;13.40;99.90;;;;;;4998771;28;20211;-89
2023/08/10 01:30:22;;;;;;;2.55;1.70;;;13.30;99.90;;;;;;4998748;28;20186;-88
2023/08/10 01:32:52;;;;;;;4.72;1.60;;;13.30;99.90;;;;;;4998617;28;20183;-90
2023/08/10 01:35:18;;;;;;;5.90;1.55;;;13.30;99.90;;;;;;4988997;28;20219;-89
2023/08/10 01:37:44;;;;;;;3.13;1.73;;;13.30;99.90;;;;;;4996260;28;20595;-89
2023/08/10 01:40:13;;;;;;;3.67;1.80;;;13.40;99.90;;;;;;4996441;28;20179;-90
2023/08/10 01:42:41;;;;;;;5.93;1.40;;;13.40;99.90;;;;;;5002589;28;20190;-89
2023/08/10 01:45:08;;;;;;;2.63;1.50;;;13.40;99.90;;;;;;5015411;28;20179;-90
2023/08/10 01:47:42;;;;;;;6.03;2.00;;;13.30;99.90;;;;;;5015990;28;20202;-92
2023/08/10 01:50:08;;;;;;;4.13;1.48;;;13.30;99.90;;;;;;4998719;28;20179;-90
2023/08/10 01:52:42;;;;;;;6.80;1.73;;;13.30;99.90;;;;;;4998702;28;20197;-90
2023/08/10 01:55:09;;;;;;;3.38;1.65;;;13.30;99.90;;;;;;4998463;28;20171;-90
2023/08/10 01:57:36;;;;;;;5.70;1.50;;;13.30;99.90;;;;;;4998086;28;20182;-90
2023/08/10 02:00:02;;;;;;;3.35;1.40;;;13.20;99.90;;;;;;4997949;28;20179;-90
2023/08/10 02:02:29;;;;;;;3.17;1.65;;;13.20;99.90;;;;;;5015299;28;20237;-90
2023/08/10 02:04:54;;;;;;;3.90;1.50;;;13.20;99.90;;;;;;5015612;28;20222;-90
2023/08/10 02:07:20;;;;;;;4.90;1.50;;;13.30;99.90;;;;;;4997882;28;20195;-90
2023/08/10 02:09:46;;;;;;;2.83;1.58;;;13.20;99.90;;;;;;4998056;28;20618;-89
2023/08/10 02:12:12;;;;;;;6.95;1.73;;;13.20;99.90;;;;;;5011042;28;20223;-89
2023/08/10 02:14:38;;;;;;;2.35;1.38;;;13.10;99.90;;;;;;4995652;28;20168;-90
2023/08/10 02:17:03;;;;;;;4.15;2.00;;;13.00;99.90;;;;;;4978557;28;20223;-90
2023/08/10 02:19:29;;;;;;;4.20;1.60;;;13.00;99.90;;;;;;4978498;28;20192;-89
2023/08/10 02:21:55;;;;;;;4.72;1.58;;;12.90;99.90;;;;;;4995663;28;20175;-91
2023/08/10 02:24:21;;;;;;;2.78;1.75;;;12.90;99.90;;;;;;4977880;28;20607;-90
2023/08/10 02:26:46;;;;;;;3.97;1.40;;;12.90;99.90;;;;;;4978549;28;20195;-90
2023/08/10 02:29:12;;;;;;;5.70;1.65;;;12.90;99.90;;;;;;4995519;28;20251;-89
2023/08/10 02:31:38;;;;;;;7.68;1.55;;;13.00;99.90;;;;;;4995473;28;21080;-90
2023/08/10 02:34:04;;;;;;;3.45;1.50;;;13.00;99.90;;;;;;4978120;28;20183;-90
2023/08/10 02:36:29;;;;;;;6.50;1.80;;;13.00;99.90;;;;;;4995668;28;20610;-90
2023/08/10 02:38:55;;;;;;;4.38;1.90;;;13.00;99.90;;;;;;4978036;28;20219;-91
2023/08/10 02:41:21;;;;;;;3.20;1.48;;;13.00;99.90;;;;;;4995287;28;20881;-91
2023/08/10 02:43:46;;;;;;;3.20;1.50;;;12.90;99.90;;;;;;4977631;28;20713;-90
2023/08/10 02:46:12;;;;;;;2.85;1.30;;;12.90;99.90;;;;;;4977493;28;20291;-90
2023/08/10 02:48:38;;;;;;;4.10;1.70;;;12.90;99.90;;;;;;4978096;28;20212;-90
2023/08/10 02:51:04;;;;;;;4.95;1.38;;;13.00;99.90;;;;;;4995401;28;20208;-89
2023/08/10 02:53:30;;;;;;;4.43;1.50;;;13.10;99.90;;;;;;4977978;28;20219;-89
2023/08/10 02:55:56;;;;;;;2.88;1.58;;;13.00;99.90;;;;;;4977954;28;20262;-89
2023/08/10 02:58:22;;;;;;;4.25;1.50;;;13.00;99.90;;;;;;4994961;28;20175;-89
2023/08/10 03:00:48;;;;;;;6.00;1.88;;;13.00;99.90;;;;;;4977977;28;20176;-90
2023/08/10 03:03:14;;;;;;;4.22;1.80;;;13.00;99.90;;;;;;4977856;28;20274;-89
2023/08/10 03:05:40;;;;;;;2.55;1.90;;;13.00;99.90;;;;;;4994914;28;20710;-90
2023/08/10 03:08:06;;;;;;;4.35;1.48;;;13.00;99.90;;;;;;4977798;28;20367;-89
2023/08/10 03:10:32;;;;;;;6.10;1.52;;;12.90;99.90;;;;;;4977807;28;20190;-89
2023/08/10 03:12:58;;;;;;;3.92;1.50;;;12.90;99.90;;;;;;4987084;28;20325;-90
2023/08/10 03:15:24;;;;;;;2.10;1.50;;;12.80;99.90;;;;;;4997058;28;20226;-91
2023/08/10 03:17:50;;;;;;;2.40;1.45;;;12.80;99.90;;;;;;5014558;28;20174;-89
2023/08/10 03:20:18;;;;;;;4.57;1.60;;;12.90;99.90;;;;;;4996975;28;20615;-90
2023/08/10 03:22:44;;;;;;;10.57;1.83;;;12.90;99.90;;;;;;5014305;28;20197;-89
2023/08/10 03:25:11;;;;;;;8.02;1.90;;;12.80;99.90;;;;;;4996625;28;20186;-90
2023/08/10 03:27:37;;;;;;;2.92;2.00;;;12.80;99.90;;;;;;4996928;28;20210;-90
2023/08/10 03:30:03;;;;;;;5.25;1.52;;;12.80;99.90;;;;;;5014324;28;20183;-90
2023/08/10 03:32:29;;;;;;;3.10;1.60;;;12.70;99.90;;;;;;4996760;28;20175;-89
2023/08/10 03:34:55;;;;;;;5.18;1.58;;;12.70;99.90;;;;;;4997002;28;20186;-89
2023/08/10 03:37:21;;;;;;;2.17;1.50;;;12.70;99.90;;;;;;4996821;28;20267;-90
2023/08/10 03:39:46;;;;;;;3.63;1.50;;;12.80;99.90;;;;;;4996617;28;20179;-90
2023/08/10 03:42:12;;;;;;;4.45;1.70;;;12.80;99.90;;;;;;5013979;28;20215;-91
2023/08/10 03:44:38;;;;;;;7.45;1.70;;;12.80;99.90;;;;;;4996588;28;20183;-90
2023/08/10 03:47:04;;;;;;;5.75;1.80;;;12.70;99.90;;;;;;5014276;28;20179;-90
2023/08/10 03:49:29;;;;;;;3.47;1.48;;;12.70;99.90;;;;;;4996755;28;20214;-90
2023/08/10 03:51:55;;;;;;;8.30;1.80;;;12.70;99.90;;;;;;5014161;28;20258;-91
2023/08/10 03:54:21;;;;;;;6.60;1.90;;;12.60;99.90;;;;;;5014247;28;20183;-90
2023/08/10 03:56:47;;;;;;;4.80;1.80;;;12.70;99.90;;;;;;4996658;28;20179;-90
2023/08/10 03:59:13;;;;;;;3.83;1.88;;;12.70;99.90;;;;;;4996430;28;20686;-92
2023/08/10 04:01:41;;;;;;;6.68;1.58;;;12.60;99.90;;;;;;5014065;28;20172;-91
2023/08/10 04:04:08;;;;;;;4.53;1.70;;;12.50;99.90;;;;;;4996455;28;20175;-93
2023/08/10 04:06:34;;;;;;;4.93;1.70;;;12.60;99.90;;;;;;4996551;28;20525;-92
2023/08/10 04:08:59;;;;;;;3.85;1.58;;;12.50;99.90;;;;;;5013882;28;20207;-91
2023/08/10 04:11:25;;;;;;;4.25;1.65;;;12.60;99.90;;;;;;5013989;28;20172;-92
2023/08/10 04:13:51;;;;;;;5.30;1.67;;;12.50;99.90;;;;;;4996154;28;20232;-91
2023/08/10 04:16:16;;;;;;;4.30;1.50;;;12.50;99.90;;;;;;4976985;28;20263;-91
2023/08/10 04:18:42;;;;;;;6.20;1.70;;;12.50;99.90;;;;;;4994327;28;20179;-90
2023/08/10 04:21:08;;;;;;;3.67;1.42;;;12.50;99.90;;;;;;4976776;28;20176;-91
2023/08/10 04:23:34;;;;;;;5.35;1.90;;;12.60;99.90;;;;;;4993897;28;20215;-90
2023/08/10 04:26:00;;;;;;;2.90;1.80;;;12.60;99.90;;;;;;4980618;28;20183;-91
2023/08/10 04:28:26;;;;;;;3.60;1.90;;;12.60;99.90;;;;;;4997450;28;20208;-90
2023/08/10 04:30:51;;;;;;;2.53;1.50;;;12.60;99.90;;;;;;4997829;28;20546;-90
2023/08/10 04:33:17;;;;;;;4.40;1.90;;;12.60;99.90;;;;;;4980165;28;20238;-90
2023/08/10 04:35:42;;;;;;;2.95;1.95;;;12.60;99.90;;;;;;4979542;28;20200;-89
2023/08/10 04:38:10;;;;;;;4.45;2.08;;;12.60;99.90;;;;;;4979937;28;20199;-90
2023/08/10 04:40:36;;;;;;;3.88;2.00;;;12.70;99.90;;;;;;4980076;28;20180;-89
2023/08/10 04:43:01;;;;;;;5.82;1.73;;;12.70;99.90;;;;;;4979885;28;20614;-89
2023/08/10 04:45:27;;;;;;;2.92;1.58;;;12.70;99.90;;;;;;4980511;28;20521;-89
2023/08/10 04:47:53;;;;;;;2.30;1.70;;;12.70;99.90;;;;;;4997293;28;20211;-88
2023/08/10 04:50:18;;;;;;;3.67;1.80;;;12.70;99.90;;;;;;4969507;28;20191;-90
2023/08/10 04:52:44;;;;;;;6.80;2.15;;;12.80;99.90;;;;;;4960602;28;20527;-89
2023/08/10 04:55:11;;;;;;;4.68;2.28;;;12.80;99.90;;;;;;4960408;28;20219;-89
2023/08/10 04:57:38;;;;;;;4.20;1.55;;;12.70;99.90;;;;;;4960449;28;20234;-89
2023/08/10 05:00:14;;;;;;;4.88;2.00;;;12.70;99.90;;;;;;4977471;28;20172;-89
2023/08/10 05:02:41;;;;;;;2.85;1.80;;;12.70;99.90;;;;;;4977549;28;20169;-89
2023/08/10 05:05:08;;;;;;;6.07;1.88;;;12.70;99.90;;;;;;4977606;28;20184;-88
2023/08/10 05:07:34;;;;;;;4.95;1.80;;;12.80;99.90;;;;;;4976308;28;20215;-88
2023/08/10 05:10:06;;;;;;;4.47;2.10;;;12.90;99.90;;;;;;4977234;28;20169;-88
2023/08/10 05:12:34;;;;;;;3.60;1.80;;;12.90;99.90;;;;;;4978977;28;20686;-88
2023/08/10 05:15:00;;;;;;;6.70;2.15;;;12.90;99.90;;;;;;4979030;28;20535;-88
2023/08/10 05:17:26;;;;;;;4.38;1.90;;;12.90;99.90;;;;;;4996661;28;20172;-88
2023/08/10 05:19:52;;;;;;;4.55;1.95;;;13.00;99.90;;;;;;4979170;28;20605;-88
2023/08/10 05:22:19;;;;;;;8.77;2.30;;;13.10;99.90;;;;;;4979075;28;20209;-87
2023/08/10 05:24:45;;;;;;;5.47;2.00;;;13.10;99.90;;;;;;4996214;28;20226;-88
2023/08/10 05:27:11;;;;;;;5.63;1.88;;;13.20;99.90;;;;;;4979164;28;20180;-88
2023/08/10 05:29:37;;;;;;;4.68;1.60;;;13.30;99.90;;;;;;4996168;28;20513;-87
2023/08/10 05:32:03;;;;;;;3.38;1.75;;;13.40;99.90;;;;;;4979059;28;20180;-88
2023/08/10 05:34:28;;;;;;;4.47;1.88;;;13.40;99.90;;;;;;4996425;28;20182;-88
2023/08/10 05:36:54;;;;;;;6.65;2.08;;;13.50;99.90;;;;;;4995345;28;20168;-88
2023/08/10 05:39:20;;;;;;;4.75;1.90;;;13.60;99.90;;;;;;4979114;28;20640;-88
2023/08/10 05:41:46;;;;;;;5.85;2.10;;;13.80;99.90;;;;;;4978853;28;20180;-89
2023/08/10 05:44:12;;;;;;;2.42;1.60;;;13.90;99.90;;;;;;4995891;28;20180;-89
2023/08/10 05:46:38;;;;;;;7.25;1.85;;;14.10;99.90;;;;;;4977920;28;20394;-89
2023/08/10 05:49:04;;;;;;;4.95;2.30;;;14.20;99.90;;;;;;4978942;28;20251;-89
2023/08/10 05:51:30;;;;;;;7.53;2.00;;;14.20;99.90;;;;;;4978874;28;20206;-92
2023/08/10 05:53:56;;;;;;;7.15;1.90;;;14.20;99.90;;;;;;4995862;28;20670;-89
2023/08/10 05:56:21;;;;;;;4.32;1.65;;;14.20;99.90;;;;;;4978847;28;20335;-89
2023/08/10 05:58:47;;;;;;;7.15;1.90;;;14.20;99.90;;;;;;4978638;28;20262;-90
2023/08/10 06:01:13;;;;;;;5.55;1.80;;;14.30;99.90;;;;;;4977301;28;20175;-90
2023/08/10 06:03:39;;;;;;;3.83;1.90;;;14.30;99.90;;;;;;4978746;28;20195;-89
2023/08/10 06:06:08;;;;;;;6.32;1.70;;;14.30;99.90;;;;;;4978794;28;20210;-89
2023/08/10 06:08:34;;;;;;;4.40;1.30;;;14.40;99.90;;;;;;4977681;28;20200;-89
2023/08/10 06:11:01;;;;;;;5.60;2.05;;;14.40;99.90;;;;;;4995979;28;20174;-89
2023/08/10 06:13:27;;;;;;;4.43;1.70;;;14.50;99.90;;;;;;4977044;28;20219;-89
2023/08/10 06:15:53;;;;;;;3.20;1.40;;;14.60;99.90;;;;;;4995894;28;20188;-89
2023/08/10 06:18:19;;;;;;;6.53;1.60;;;14.70;99.90;;;;;;4978144;28;20176;-89
2023/08/10 06:20:47;;;;;;;7.03;1.70;;;14.80;99.90;;;;;;4978269;28;20200;-89
2023/08/10 06:23:13;;;;;;;5.88;1.30;;;14.90;99.90;;;;;;4995748;28;20646;-89
2023/08/10 06:25:40;;;;;;;6.78;1.60;;;15.00;99.90;;;;;;4995665;28;20179;-89
2023/08/10 06:28:09;;;;;;;5.32;1.10;;;15.00;99.90;;;;;;4978237;28;20251;-89
2023/08/10 06:30:35;;;;;;;2.88;1.10;;;15.10;99.90;;;;;;4978164;28;20239;-89
2023/08/10 06:33:01;;;;;;;6.88;1.50;;;15.10;99.90;;;;;;4978029;28;20634;-91
2023/08/10 06:35:27;;;;;;;6.65;1.67;;;15.10;99.90;;;;;;4978330;28;20205;-90
2023/08/10 06:37:53;;;;;;;6.90;1.23;;;15.20;99.90;;;;;;4978442;28;20187;-92
2023/08/10 06:40:20;;;;;;;3.58;1.05;;;15.40;99.90;;;;;;4978077;28;20175;-89
2023/08/10 06:42:46;;;;;;;4.38;1.10;;;15.50;99.90;;;;;;4977863;28;20180;-90
2023/08/10 06:45:12;;;;;;;6.32;1.60;;;15.60;99.90;;;;;;4977749;28;20644;-90
2023/08/10 06:47:38;;;;;;;5.13;1.17;;;15.70;99.90;;;;;;4977551;28;20286;-91
2023/08/10 06:50:05;;;;;;;4.70;1.42;;;15.90;99.90;;;;;;4995116;28;20172;-91
2023/08/10 06:52:31;;;;;;;2.95;1.05;;;16.10;99.90;;;;;;4977774;28;20176;-88
2023/08/10 06:54:57;;;;;;;3.35;1.17;;;16.30;99.90;;;;;;4977555;28;20190;-88
2023/08/10 06:57:22;;;;;;;1.90;1.00;;;16.40;99.90;;;;;;4990355;28;20257;-90
2023/08/10 06:59:48;;;;;;;7.05;1.52;;;16.50;99.90;;;;;;4958156;28;20272;-93
2023/08/10 07:02:16;;;;;;;3.97;0.90;;;16.60;99.90;;;;;;4958578;28;20177;-89
2023/08/10 07:04:44;;;;;;;3.13;1.20;;;16.70;99.90;;;;;;4959018;28;20185;-91
2023/08/10 07:07:10;;;;;;;5.03;1.30;;;16.70;99.90;;;;;;4959016;28;20256;-90
2023/08/10 07:09:36;;;;;;;6.30;1.02;;;16.90;99.90;;;;;;4959125;28;20172;-90
2023/08/10 07:12:03;;;;;;;7.88;1.60;;;16.90;99.90;;;;;;4958799;28;20351;-90
2023/08/10 07:14:29;;;;;;;4.93;1.20;;;17.00;99.90;;;;;;4988646;28;20180;-89
2023/08/10 07:16:55;;;;;;;2.38;0.90;;;17.00;99.90;;;;;;4978537;28;20176;-89
2023/08/10 07:19:21;;;;;;;4.68;1.45;;;17.10;99.90;;;;;;4978372;28;20176;-89
2023/08/10 07:21:47;;;;;;;4.30;1.25;;;17.30;99.90;;;;;;4995518;28;20172;-89
2023/08/10 07:24:12;;;;;;;4.60;1.13;;;17.40;99.90;;;;;;4978186;28;20353;-90
2023/08/10 07:26:45;;;;;;;10.18;1.77;;;17.50;99.90;;;;;;4972245;28;20671;-89
2023/08/10 07:29:14;;;;;;;2.20;0.80;;;17.50;99.90;;;;;;4958758;28;20220;-91
2023/08/10 07:31:40;;;;;;;7.55;1.20;;;17.50;99.90;;;;;;4959023;28;20522;-91
2023/08/10 07:34:09;;;;;;;6.88;1.20;;;17.40;99.90;;;;;;4958699;28;20180;-89
2023/08/10 07:36:35;;;;;;;4.88;1.00;;;17.40;99.90;;;;;;4958431;28;20211;-88
2023/08/10 07:39:01;;;;;;;4.38;0.98;;;17.20;99.90;;;;;;4957884;28;20224;-90
2023/08/10 07:41:27;;;;;;;6.10;1.67;;;17.20;99.90;;;;;;4975554;28;20176;-87
2023/08/10 07:43:53;;;;;;;6.13;1.50;;;17.10;99.90;;;;;;4973155;28;20184;-89
2023/08/10 07:46:19;;;;;;;4.75;1.15;;;17.10;99.90;;;;;;4977641;28;20176;-89
2023/08/10 07:48:55;;;;;;;6.60;1.30;;;17.20;99.90;;;;;;4977223;28;20218;-90
2023/08/10 07:51:21;;;;;;;6.45;1.20;;;17.40;99.90;;;;;;4977585;28;20681;-89
2023/08/10 07:53:47;;;;;;;3.17;1.05;;;17.50;99.90;;;;;;4994637;28;20235;-89
2023/08/10 07:56:13;;;;;;;5.47;1.20;;;17.70;99.90;;;;;;4994306;28;20187;-88
2023/08/10 07:58:38;;;;;;;9.82;1.73;;;17.90;99.90;;;;;;4977176;28;20184;-87
2023/08/10 08:01:07;;;;;;;5.55;1.13;;;18.00;99.90;;;;;;4980748;28;20235;-88
2023/08/10 08:03:34;;;;;;;7.43;1.52;;;17.90;99.90;;;;;;4980608;28;20197;-89
2023/08/10 08:06:00;;;;;;;6.95;1.30;;;18.00;99.90;;;;;;4981076;28;20180;-88
2023/08/10 08:08:28;;;;;;;5.80;1.00;;;17.90;99.90;;;;;;4980917;28;20222;-88
2023/08/10 08:10:55;;;;;;;5.97;1.17;;;17.70;99.90;;;;;;4980698;28;20670;-88
2023/08/10 08:13:20;;;;;;;6.63;1.20;;;17.40;99.90;;;;;;4998153;28;20223;-91
2023/08/10 08:15:46;;;;;;;6.82;1.60;;;17.40;99.90;;;;;;4980852;28;20231;-90
2023/08/10 08:18:41;;;;;;;5.55;1.00;;;17.40;99.90;;;;;;4998168;28;20218;-89
2023/08/10 08:21:08;;;;;;;6.20;1.40;;;17.70;99.90;;;;;;4997861;28;20256;-85
2023/08/10 08:23:34;;;;;;;7.30;1.25;;;17.90;99.90;;;;;;4997337;28;20178;-89
2023/08/10 08:26:00;;;;;;;3.45;0.90;;;18.30;99.90;;;;;;4980759;28;20274;-90
2023/08/10 08:28:26;;;;;;;3.40;1.20;;;18.50;99.90;;;;;;4980731;28;20288;-90
2023/08/10 08:30:52;;;;;;;3.78;1.10;;;18.50;99.90;;;;;;4979927;28;20184;-90
2023/08/10 08:33:18;;;;;;;5.53;1.50;;;18.50;99.90;;;;;;4997569;28;20243;-87
2023/08/10 08:35:46;;;;;;;6.50;1.25;;;18.40;99.90;;;;;;4979930;28;20184;-87
2023/08/10 08:38:15;;;;;;;4.28;1.50;;;18.30;99.90;;;;;;4979989;28;20180;-88
2023/08/10 08:40:42;;;;;;;3.72;1.13;;;18.40;99.90;;;;;;4980078;28;20179;-90
2023/08/10 08:43:10;;;;;;;4.15;1.40;;;18.40;99.90;;;;;;4997594;28;20203;-89
2023/08/10 08:45:36;;;;;;;5.68;1.30;;;18.40;99.90;;;;;;4979459;28;20191;-88
2023/08/10 08:48:05;;;;;;;2.38;1.10;;;18.40;99.90;;;;;;4980121;28;20233;-88
2023/08/10 08:50:31;;;;;;;5.13;1.10;;;18.40;99.90;;;;;;4997256;28;20156;-89
2023/08/10 08:52:58;;;;;;;6.28;1.10;;;18.40;99.90;;;;;;4979673;28;20186;-88
2023/08/10 08:55:25;;;;;;;4.03;1.38;;;18.30;99.90;;;;;;4979801;28;20271;-89
2023/08/10 08:57:51;;;;;;;4.47;1.20;;;18.20;99.90;;;;;;4979238;28;20264;-89
2023/08/10 09:00:17;;;;;;;4.05;1.08;;;18.10;99.90;;;;;;4979415;28;20790;-89
2023/08/10 09:02:43;;;;;;;3.38;1.20;;;18.00;99.90;;;;;;4979414;28;20206;-87
2023/08/10 09:05:09;;;;;;;5.25;1.20;;;17.80;99.90;;;;;;4979456;28;20188;-89
2023/08/10 09:07:34;;;;;;;3.00;1.10;;;17.60;99.90;;;;;;4979503;28;20517;-89
2023/08/10 09:10:00;;;;;;;5.45;1.20;;;17.60;99.90;;;;;;4979209;28;20190;-89
2023/08/10 09:12:33;;;;;;;4.45;1.17;;;17.60;99.90;;;;;;4996591;28;20679;-89
2023/08/10 09:15:04;;;;;;;4.35;1.27;;;17.80;99.90;;;;;;4996436;28;20183;-88
2023/08/10 09:17:31;;;;;;;8.15;1.40;;;18.00;99.90;;;;;;4996682;28;20172;-88
2023/08/10 09:19:57;;;;;;;5.43;1.17;;;18.20;99.90;;;;;;4979134;28;20187;-87
2023/08/10 09:22:30;;;;;;;6.00;1.40;;;18.40;99.90;;;;;;4979289;28;20175;-88
2023/08/10 09:24:56;;;;;;;6.45;1.40;;;18.60;99.90;;;;;;4978637;28;20184;-88
2023/08/10 09:27:25;;;;;;;4.68;1.00;;;18.80;99.90;;;;;;4979002;28;20557;-89
2023/08/10 09:29:56;;;;;;;4.82;1.30;;;18.90;99.90;;;;;;4978637;28;20271;-90
2023/08/10 09:32:22;;;;;;;3.53;1.13;;;19.00;99.90;;;;;;4996323;28;20202;-88
2023/08/10 09:34:48;;;;;;;4.38;1.40;;;19.00;99.90;;;;;;4978973;28;20202;-88
2023/08/10 09:37:14;;;;;;;5.20;1.20;;;19.10;99.90;;;;;;4978832;28;20180;-88
2023/08/10 09:39:40;;;;;;;4.75;1.40;;;19.30;99.90;;;;;;4978700;28;20187;-87
2023/08/10 09:42:06;;;;;;;2.83;1.38;;;19.30;99.90;;;;;;4978787;28;20176;-88
2023/08/10 09:44:46;;;;;;;5.80;1.40;;;19.40;99.90;;;;;;4978729;28;20218;-89
2023/08/10 09:47:14;;;;;;;5.70;1.60;;;19.60;99.90;;;;;;4978726;28;20271;-93
2023/08/10 09:49:56;;;;;;;8.07;1.70;;;19.70;99.90;;;;;;4979745;28;20191;-91
2023/08/10 09:52:23;;;;;;;3.50;1.10;;;20.00;99.90;;;;;;4979235;28;20582;-89
2023/08/10 09:54:53;;;;;;;3.13;1.10;;;20.00;99.90;;;;;;4979427;28;20218;-87
2023/08/10 09:57:20;;;;;;;7.63;1.40;;;20.10;99.90;;;;;;4979670;28;20187;-89
2023/08/10 09:59:47;;;;;;;3.80;1.00;;;20.20;99.90;;;;;;4996355;28;20172;-88
2023/08/10 10:02:14;;;;;;;6.03;1.50;;;20.20;99.90;;;;;;4979154;28;20202;-89
2023/08/10 10:04:40;;;;;;;8.18;1.40;;;20.00;99.90;;;;;;4979249;28;20235;-89
2023/08/10 10:07:08;;;;;;;3.10;1.08;;;20.00;99.90;;;;;;4996519;28;20180;-93
2023/08/10 10:09:38;;;;;;;7.63;1.50;;;19.90;99.90;;;;;;4978981;28;20216;-87
2023/08/10 10:12:11;;;;;;;4.82;1.65;;;19.80;99.90;;;;;;4979123;28;20219;-91
2023/08/10 10:14:43;;;;;;;4.22;1.40;;;19.60;99.90;;;;;;4978872;28;20180;-89
2023/08/10 10:17:14;;;;;;;4.68;1.20;;;19.30;99.90;;;;;;4978826;28;20175;-89
2023/08/10 10:19:40;;;;;;;3.40;1.25;;;19.30;99.90;;;;;;4978748;28;20230;-91
2023/08/10 10:22:07;;;;;;;7.80;1.38;;;19.30;99.90;;;;;;4978073;28;20176;-86
2023/08/10 10:24:34;;;;;;;3.92;1.10;;;19.50;99.90;;;;;;4978778;28;20607;-90
2023/08/10 10:27:11;;;;;;;3.05;1.10;;;19.60;99.90;;;;;;4988152;28;20638;-91
2023/08/10 10:29:40;;;;;;;6.75;1.30;;;19.30;99.90;;;;;;4995666;28;20337;-88
2023/08/10 10:32:10;;;;;;;2.58;1.20;;;19.30;99.90;;;;;;4978473;28;20175;-88
2023/08/10 10:34:37;;;;;;;6.20;1.58;;;19.10;99.90;;;;;;4978604;28;20219;-87
2023/08/10 10:37:14;;;;;;;6.13;1.42;;;19.10;99.90;;;;;;4978489;28;20190;-88
2023/08/10 10:39:49;;;;;;;4.07;1.27;;;19.00;99.90;;;;;;4995672;28;20175;-88
2023/08/10 10:42:17;;;;;;;6.68;0.98;;;18.90;99.90;;;;;;4978343;28;20176;-88
2023/08/10 10:45:06;;;;;;;3.30;1.55;;;19.10;99.90;;;;;;4995900;28;20195;-89
2023/08/10 10:47:37;;;;;;;5.40;1.42;;;19.50;99.90;;;;;;4978525;28;20203;-89
2023/08/10 10:50:28;;;;;;;5.20;1.48;;;19.90;99.90;;;;;;4978401;28;20255;-90
2023/08/10 10:53:00;;;;;;;5.13;1.35;;;20.10;99.90;;;;;;4978296;28;20172;-88
2023/08/10 10:55:36;;;;;;;3.88;1.13;;;20.00;99.90;;;;;;4978378;28;20176;-90
2023/08/10 10:58:03;;;;;;;5.90;1.50;;;20.00;99.90;;;;;;4978353;28;20171;-89
2023/08/10 11:00:30;;;;;;;4.38;1.40;;;20.10;99.90;;;;;;4977249;28;20638;-92
2023/08/10 11:02:56;;;;;;;6.13;1.27;;;20.20;99.90;;;;;;4977212;28;20214;-88
2023/08/10 11:05:22;;;;;;;4.82;1.35;;;20.50;99.90;;;;;;4977500;28;20184;-88
2023/08/10 11:07:50;;;;;;;8.95;1.63;;;20.70;99.90;;;;;;4977643;28;20212;-91
2023/08/10 11:10:18;;;;;;;7.10;1.70;;;20.70;99.90;;;;;;4977129;28;20521;-87
2023/08/10 11:12:45;;;;;;;6.28;1.40;;;20.50;99.90;;;;;;4994387;28;20234;-87
2023/08/10 11:15:13;;;;;;;2.22;1.27;;;20.20;99.90;;;;;;4977095;28;20179;-91
2023/08/10 11:17:41;;;;;;;6.20;1.30;;;19.80;99.90;;;;;;4994599;28;20641;-91
2023/08/10 11:20:14;;;;;;;5.43;1.45;;;19.60;99.90;;;;;;4968121;28;20228;-89
2023/08/10 11:22:41;;;;;;;3.90;1.40;;;19.40;99.90;;;;;;4974754;28;20639;-89
2023/08/10 11:25:12;;;;;;;3.40;1.20;;;19.40;99.90;;;;;;4975101;28;20207;-87
2023/08/10 11:27:41;;;;;;;6.40;1.30;;;19.70;99.90;;;;;;4977935;28;20177;-89
2023/08/10 11:30:09;;;;;;;5.60;1.25;;;19.80;99.90;;;;;;4994497;28;20180;-88
2023/08/10 11:32:42;;;;;;;6.88;1.20;;;19.70;99.90;;;;;;4977902;28;20184;-90
2023/08/10 11:35:09;;;;;;;6.10;1.35;;;19.60;99.90;;;;;;4998996;28;20250;-87
2023/08/10 11:37:38;;;;;;;3.50;1.17;;;19.40;99.90;;;;;;4998773;28;20172;-86
2023/08/10 11:40:20;;;;;;;4.07;1.02;;;19.60;99.90;;;;;;4998879;28;20182;-89
2023/08/10 11:42:52;;;;;;;2.20;1.00;;;19.90;99.90;;;;;;4981329;28;20256;-87
2023/08/10 11:45:21;;;;;;;4.07;0.95;;;20.10;99.90;;;;;;4998479;28;20242;-88
2023/08/10 11:47:54;;;;;;;2.45;1.20;;;20.30;99.90;;;;;;4981186;28;20222;-86
2023/08/10 11:50:21;;;;;;;4.63;1.35;;;20.20;99.90;;;;;;4981018;28;20269;-88
2023/08/10 11:52:49;;;;;;;3.90;1.05;;;20.10;99.90;;;;;;4981137;28;20176;-88
2023/08/10 11:55:17;;;;;;;5.95;1.25;;;20.30;99.90;;;;;;4998469;28;20503;-86
2023/08/10 11:57:54;;;;;;;4.47;1.23;;;20.50;99.90;;;;;;4997640;28;20176;-87
2023/08/10 12:00:30;;;;;;;4.30;1.67;;;20.80;99.90;;;;;;4980657;28;20176;-87
2023/08/10 12:03:12;;;;;;;5.03;1.48;;;20.90;99.90;;;;;;4998380;28;20164;-88
2023/08/10 12:05:55;;;;;;;3.25;1.30;;;21.00;99.90;;;;;;4987064;28;20172;-87
2023/08/10 12:08:32;;;;;;;6.32;1.00;;;21.20;99.90;;;;;;4978942;28;20204;-88
2023/08/10 12:11:02;;;;;;;7.07;1.20;;;21.40;99.90;;;;;;4961283;28;20283;-89
2023/08/10 12:13:28;;;;;;;5.63;1.45;;;21.60;98.20;;;;;;4978922;28;20310;-87
2023/08/10 12:15:56;;;;;;;5.22;0.98;;;21.50;99.10;;;;;;5017618;28;20603;-87
2023/08/10 12:18:22;;;;;;;2.28;1.00;;;21.20;99.90;;;;;;5017929;28;20202;-88
2023/08/10 12:20:51;;;;;;;6.10;1.40;;;20.80;99.90;;;;;;5017723;28;20282;-88
2023/08/10 12:23:18;;;;;;;3.45;1.10;;;20.80;99.00;;;;;;4999997;28;20179;-87
2023/08/10 12:25:45;;;;;;;2.92;1.00;;;20.90;97.60;;;;;;4999831;28;20618;-88
2023/08/10 12:28:11;;;;;;;5.70;1.10;;;21.10;99.90;;;;;;5000016;28;20621;-88
2023/08/10 12:30:39;;;;;;;3.25;1.10;;;21.10;99.90;;;;;;5017142;28;20241;-87
2023/08/10 12:33:10;;;;;;;2.78;0.90;;;21.20;99.90;;;;;;5000412;28;20179;-89
2023/08/10 12:35:36;;;;;;;6.40;1.30;;;21.40;99.00;;;;;;4999499;28;20194;-89
2023/08/10 12:38:06;;;;;;;7.47;1.30;;;21.40;99.50;;;;;;5017657;28;20618;-88
2023/08/10 12:40:32;;;;;;;4.45;1.20;;;21.20;99.60;;;;;;4999742;28;20175;-88
2023/08/10 12:42:58;;;;;;;2.97;1.08;;;20.90;99.90;;;;;;4999572;28;20227;-87
2023/08/10 12:45:25;;;;;;;4.10;1.35;;;20.60;99.90;;;;;;4998468;28;20179;-88
2023/08/10 12:47:51;;;;;;;3.88;0.95;;;20.70;99.90;;;;;;5017131;28;20213;-89
2023/08/10 12:50:21;;;;;;;4.20;1.33;;;21.00;99.90;;;;;;4999759;28;20618;-89